Aérodrome :
LOGIN :

S'inscrire | Disclaimer

   EN    FR    IT 

 










Légende :    VFR   VFR Marginal   IFR   IFR Intensif   IFR Très Intensif
Visi : 
Plafond : 
>= 8 km
>= 3000ft
5 à 8 km
1000 à 3000 ft
1500m à 5 km
500 à 1000 ft
800 à 1500m
200 à 500 ft
< 800m
< 200 ft
Symboles :   Orages  Brouillard  Fortes neiges  Fortes précipitations  Vent > 20 kt
SIGMETs :   Divers  Orages  Givrage  Turbulence  Onde Orograph.  Cendres Volcan.






- Altitude de l'aérodrome : 408 ft
- Code IATA : SOB


LHSM - Sarmellek Balaton

DERNIER METAR :
  • 070015Z AUTO VRB03KT 0750 R16/1000D -SHRA FG VV002 M00/M00 Q1019

METARs EXPIRÉS :
  • 062345Z AUTO 15003KT 0650 R16/0800N -SHRA FG VV002 M00/M00 Q1019
  • 062315Z AUTO 16002KT 0750 R16/0900U -SHRA FG VV002 M00/M00 Q1019
  • 062245Z AUTO 15002KT 0800 R16/1200D FG VV002 M00/M00 Q1020
  • 062215Z AUTO 17003KT 0800 R16/1000U -SHRA FG VV002 M00/M00 Q1020
  • 062145Z AUTO VRB02KT 0800 R16/1400D FG VV003 M00/M00 Q1020

Prévision TAF périmée.



MET'MAP, la Météo Aéronautique d'un coup d'oeil ! - Copyright ORBIFLY Décembre 2007 - Disclaimer

ORBIFLY MET'MAP TEAM :

Programmation & Développement : Alexandra Zaïnal
Sur une idée originale de : Baudouin d'Aumeries
Assistance à la programmation : Marc-Olivier Méhu
Soutien technique & logistique : Manuel Goepfert

Contact : metmap@orbifly.com




SOURCES & CREDITS :

   NOAA